createdAt,value
2024-04-11T00:01:14.774Z,99420.06
2024-04-11T00:04:06.151Z,99411.66
2024-04-11T00:06:57.091Z,99404.41
2024-04-11T00:09:47.984Z,99405.41
2024-04-11T00:12:39.057Z,99413.56
2024-04-11T00:15:30.080Z,99410.31
2024-04-11T00:18:23.675Z,99407.47
2024-04-11T00:21:14.596Z,99414.22
2024-04-11T00:24:06.399Z,99411.53
2024-04-11T00:26:57.360Z,99411.63
2024-04-11T00:29:48.225Z,99413.97
2024-04-11T00:32:39.278Z,99423.44
2024-04-11T00:35:30.238Z,99419.34
2024-04-11T00:38:22.245Z,99414.22
2024-04-11T00:41:13.157Z,99423.84
2024-04-11T00:44:04.307Z,99418.28
2024-04-11T00:46:56.576Z,99417.56
2024-04-11T00:49:48.744Z,99425.94
2024-04-11T00:52:44.893Z,99419.75
2024-04-11T00:55:39.245Z,99421.69
2024-04-11T00:58:30.664Z,99421.97
2024-04-11T01:01:21.477Z,99422.88
2024-04-11T01:04:13.126Z,99421.03
2024-04-11T01:07:12.827Z,99419.47
2024-04-11T01:10:08.816Z,99423.47
2024-04-11T01:12:59.672Z,99433.25
2024-04-11T01:15:51.290Z,99424.09
2024-04-11T01:18:42.240Z,99430.94
2024-04-11T01:21:33.178Z,99427.41
2024-04-11T01:24:23.997Z,99426.94
2024-04-11T01:27:17.766Z,99429.91
2024-04-11T01:30:09.660Z,99435.66
2024-04-11T01:33:11.340Z,99436.66
2024-04-11T01:36:02.873Z,99434.88
2024-04-11T01:38:53.812Z,99433.88
2024-04-11T01:41:44.728Z,99437.75
2024-04-11T01:44:35.824Z,99435.97
2024-04-11T01:47:28.112Z,99438.06
2024-04-11T01:50:19.260Z,99437.59
2024-04-11T01:53:12.413Z,99433.56
2024-04-11T01:56:11.102Z,99431.97
2024-04-11T01:59:09.645Z,99428.72
2024-04-11T02:02:03.042Z,99423.88
2024-04-11T02:04:55.440Z,99428.72
2024-04-11T02:07:46.793Z,99425.00
2024-04-11T02:10:37.678Z,99437.78
2024-04-11T02:13:28.566Z,99427.28
2024-04-11T02:16:20.901Z,99421.75
2024-04-11T02:19:13.459Z,99426.59
2024-04-11T02:22:08.622Z,99418.81
2024-04-11T02:24:59.571Z,99427.53
2024-04-11T02:27:50.576Z,99424.13
2024-04-11T02:30:41.399Z,99430.41
2024-04-11T02:33:37.439Z,99423.91
2024-04-11T02:36:30.947Z,99429.06
2024-04-11T02:39:22.471Z,99416.91
2024-04-11T02:42:13.907Z,99412.34
2024-04-11T02:45:06.221Z,99418.63
2024-04-11T02:47:59.268Z,99422.47
2024-04-11T02:50:50.743Z,99420.03
2024-04-11T02:53:42.461Z,99421.81
2024-04-11T02:56:33.555Z,99407.88
2024-04-11T02:59:24.746Z,99413.53
2024-04-11T03:02:15.539Z,99401.69
2024-04-11T03:05:07.565Z,99407.16
2024-04-11T03:07:58.571Z,99412.63
2024-04-11T03:10:49.558Z,99409.06
2024-04-11T03:13:40.818Z,99411.66
2024-04-11T03:16:32.290Z,99409.06
2024-04-11T03:19:24.016Z,99409.84
2024-04-11T03:22:15.396Z,99408.09
2024-04-11T03:25:06.540Z,99418.00
2024-04-11T03:27:57.394Z,99416.03
2024-04-11T03:31:02.201Z,99418.97
2024-04-11T03:33:53.387Z,99418.00
2024-04-11T03:36:45.989Z,99429.31
2024-04-11T03:39:36.989Z,99432.91
2024-04-11T03:42:28.919Z,99433.06
2024-04-11T03:45:24.416Z,99431.28
2024-04-11T03:48:15.449Z,99430.16
2024-04-11T03:51:14.827Z,99433.56
2024-04-11T03:54:07.990Z,99437.09
2024-04-11T03:56:59.556Z,99436.94
2024-04-11T03:59:53.464Z,99456.69
2024-04-11T04:02:44.513Z,99451.00
2024-04-11T04:05:35.488Z,99443.91
2024-04-11T04:08:26.411Z,99450.00
2024-04-11T04:11:19.464Z,99441.13
2024-04-11T04:14:11.058Z,99447.41
2024-04-11T04:17:02.771Z,99455.81
2024-04-11T04:19:53.628Z,99453.69
2024-04-11T04:22:45.529Z,99454.16
2024-04-11T04:25:41.944Z,99456.72
2024-04-11T04:28:41.035Z,99455.19
2024-04-11T04:31:34.013Z,99457.13
2024-04-11T04:34:26.800Z,99459.19
2024-04-11T04:37:19.148Z,99462.88
2024-04-11T04:40:12.089Z,99467.53
2024-04-11T04:43:03.892Z,99466.41
2024-04-11T04:45:58.731Z,99468.94
2024-04-11T04:48:51.204Z,99473.06
2024-04-11T04:51:45.281Z,99475.44
2024-04-11T04:54:36.215Z,99469.38
2024-04-11T04:57:27.535Z,99474.84
2024-04-11T05:00:18.404Z,99478.50
2024-04-11T05:03:11.813Z,99470.19
2024-04-11T05:06:05.473Z,99474.22
2024-04-11T05:08:57.201Z,99476.81
2024-04-11T05:11:48.149Z,99474.88
2024-04-11T05:14:41.719Z,99479.81
2024-04-11T05:17:34.609Z,99487.66
2024-04-11T05:20:28.847Z,99493.03
2024-04-11T05:23:20.456Z,99487.22
2024-04-11T05:26:16.419Z,99489.72
2024-04-11T05:29:09.491Z,99478.53
2024-04-11T05:32:05.554Z,99479.22
2024-04-11T05:34:56.417Z,99478.13
2024-04-11T05:37:47.282Z,99487.63
2024-04-11T05:40:38.195Z,99484.75
2024-04-11T05:43:36.049Z,99486.25
2024-04-11T05:46:31.646Z,99478.69
2024-04-11T05:49:23.536Z,99483.34
2024-04-11T05:52:14.447Z,99492.06
2024-04-11T05:55:05.947Z,99484.66
2024-04-11T05:57:56.792Z,99489.97
2024-04-11T06:00:50.787Z,99484.00
2024-04-11T06:03:48.015Z,99490.69
2024-04-11T06:06:39.780Z,99491.94
2024-04-11T06:09:30.926Z,99492.56
2024-04-11T06:12:21.858Z,99499.53
2024-04-11T06:15:13.375Z,99495.41
2024-04-11T06:18:11.650Z,99491.28
2024-04-11T06:21:06.317Z,99500.75
2024-04-11T06:23:57.339Z,99497.19
2024-04-11T06:26:48.290Z,99500.88
2024-04-11T06:29:39.567Z,99497.09
2024-04-11T06:32:32.718Z,99507.72
2024-04-11T06:35:24.333Z,99506.72
2024-04-11T06:38:16.650Z,99515.81
2024-04-11T06:41:10.506Z,99512.63
2024-04-11T06:44:07.570Z,99517.41
2024-04-11T06:46:59.491Z,99520.81
2024-04-11T06:49:50.346Z,99524.44
2024-04-11T06:52:41.159Z,99523.69
2024-04-11T06:55:33.371Z,99526.72
2024-04-11T06:58:25.658Z,99527.72
2024-04-11T07:01:17.294Z,99533.75
2024-04-11T07:04:11.037Z,99536.34
2024-04-11T07:07:09.752Z,99536.19
2024-04-11T07:10:00.726Z,99529.41
2024-04-11T07:12:53.931Z,99535.44
2024-04-11T07:15:44.757Z,99538.72
2024-04-11T07:18:46.479Z,99537.94
2024-04-11T07:21:39.923Z,99528.72
2024-04-11T07:24:30.939Z,99531.97
2024-04-11T07:27:22.794Z,99532.56
2024-04-11T07:30:13.685Z,99533.56
2024-04-11T07:33:08.050Z,99542.44
2024-04-11T07:35:59.736Z,99531.41
2024-04-11T07:38:51.225Z,99534.00
2024-04-11T07:41:49.047Z,99544.09
2024-04-11T07:44:40.153Z,99549.31
2024-04-11T07:47:43.807Z,99541.06
2024-04-11T07:50:47.138Z,99540.66
2024-04-11T07:53:39.466Z,99546.09
2024-04-11T07:56:30.496Z,99548.47
2024-04-11T07:59:21.346Z,99541.84
2024-04-11T08:02:12.616Z,99548.44
2024-04-11T08:05:05.488Z,99549.28
2024-04-11T08:07:59.022Z,99549.47
2024-04-11T08:10:51.326Z,99543.34
2024-04-11T08:13:46.367Z,99542.31
2024-04-11T08:16:38.537Z,99545.13
2024-04-11T08:19:33.432Z,99547.50
2024-04-11T08:22:30.911Z,99550.28
2024-04-11T08:25:21.714Z,99548.19
2024-04-11T08:28:14.770Z,99535.81
2024-04-11T08:31:09.877Z,99539.97
2024-04-11T08:34:00.948Z,99537.28
2024-04-11T08:36:54.157Z,99534.06
2024-04-11T08:39:45.721Z,99537.50
2024-04-11T08:42:40.158Z,99541.94
2024-04-11T08:45:35.666Z,99549.94
2024-04-11T08:48:26.958Z,99544.84
2024-04-11T08:51:22.015Z,99545.03
2024-04-11T08:54:17.619Z,99543.81
2024-04-11T08:57:12.531Z,99540.53
2024-04-11T09:00:13.825Z,99545.75
2024-04-11T09:03:05.228Z,99541.50
2024-04-11T09:05:59.511Z,99546.31
2024-04-11T09:08:52.332Z,99544.06
2024-04-11T09:11:45.955Z,99546.44
2024-04-11T09:14:36.924Z,99544.63
2024-04-11T09:17:29.277Z,99540.19
2024-04-11T09:20:21.064Z,99528.00
2024-04-11T09:23:21.184Z,99523.56
2024-04-11T09:26:12.148Z,99533.31
2024-04-11T09:29:06.090Z,99525.63
2024-04-11T09:31:58.686Z,99526.91
2024-04-11T09:34:51.700Z,99524.34
2024-04-11T09:37:42.536Z,99515.59
2024-04-11T09:40:35.487Z,99522.72
2024-04-11T09:43:29.298Z,99521.06
2024-04-11T09:46:27.128Z,99515.50
2024-04-11T09:49:18.515Z,99523.44
2024-04-11T09:52:15.030Z,99518.41
2024-04-11T09:55:18.405Z,99518.09
2024-04-11T09:58:12.658Z,99507.25
2024-04-11T10:01:06.790Z,99518.97
2024-04-11T10:04:05.457Z,99514.84
2024-04-11T10:07:00.537Z,99509.63
2024-04-11T10:09:54.163Z,99512.84
2024-04-11T10:12:50.151Z,99514.34
2024-04-11T10:15:41.166Z,99515.72
2024-04-11T10:18:47.747Z,99509.06
2024-04-11T10:21:48.512Z,99506.66
2024-04-11T10:24:51.346Z,99504.25
2024-04-11T10:27:45.132Z,99510.28
2024-04-11T10:30:38.621Z,99511.88
2024-04-11T10:33:31.284Z,99507.06
2024-04-11T10:36:23.125Z,99503.66
2024-04-11T10:39:14.104Z,99505.84
2024-04-11T10:42:09.045Z,99507.47
2024-04-11T10:45:00.907Z,99505.31
2024-04-11T10:47:52.658Z,99493.63
2024-04-11T10:50:46.290Z,99494.88
2024-04-11T10:53:37.331Z,99499.56
2024-04-11T10:56:29.326Z,99482.38
2024-04-11T10:59:24.441Z,99493.25
2024-04-11T11:02:21.021Z,99486.50
2024-04-11T11:05:12.031Z,99493.94
2024-04-11T11:08:02.872Z,99490.09
2024-04-11T11:10:55.666Z,99491.63
2024-04-11T11:13:49.009Z,99486.28
2024-04-11T11:16:44.637Z,99481.03
2024-04-11T11:19:39.257Z,99483.81
2024-04-11T11:22:35.025Z,99483.22
2024-04-11T11:25:27.784Z,99486.28
2024-04-11T11:28:19.182Z,99475.50
2024-04-11T11:31:22.081Z,99467.66
2024-04-11T11:34:13.254Z,99468.47
2024-04-11T11:37:04.804Z,99471.59
2024-04-11T11:39:57.117Z,99465.34
2024-04-11T11:42:48.098Z,99462.38
2024-04-11T11:45:58.924Z,99467.53
2024-04-11T11:48:49.895Z,99465.13
2024-04-11T11:51:42.259Z,99457.34
2024-04-11T11:54:36.242Z,99454.25
2024-04-11T11:57:33.517Z,99451.03
2024-04-11T12:00:27.180Z,99445.41
2024-04-11T12:03:28.151Z,99442.06
2024-04-11T12:06:26.099Z,99441.06
2024-04-11T12:09:22.012Z,99439.34
2024-04-11T12:12:25.138Z,99432.19
2024-04-11T12:15:17.651Z,99434.03
2024-04-11T12:18:13.457Z,99431.66
2024-04-11T12:21:05.574Z,99431.13
2024-04-11T12:23:58.197Z,99418.78
2024-04-11T12:26:50.777Z,99414.09
2024-04-11T12:29:43.763Z,99420.97
2024-04-11T12:32:36.587Z,99428.56
2024-04-11T12:35:31.152Z,99424.75
2024-04-11T12:38:31.442Z,99427.47
2024-04-11T12:41:22.403Z,99422.44
2024-04-11T12:44:13.712Z,99419.31
2024-04-11T12:47:15.231Z,99427.41
2024-04-11T12:50:13.903Z,99418.44
2024-04-11T12:53:11.976Z,99417.91
2024-04-11T12:56:08.191Z,99417.97
2024-04-11T12:59:06.477Z,99417.97
2024-04-11T13:01:59.106Z,99418.44
2024-04-11T13:04:55.307Z,99421.28
2024-04-11T13:07:47.864Z,99416.34
2024-04-11T13:10:38.973Z,99403.38
2024-04-11T13:13:31.287Z,99414.31
2024-04-11T13:16:23.385Z,99408.59
2024-04-11T13:19:20.563Z,99405.22
2024-04-11T13:22:13.680Z,99406.81
2024-04-11T13:25:12.006Z,99405.22
2024-04-11T13:28:02.899Z,99400.03
2024-04-11T13:30:56.577Z,99405.69
2024-04-11T13:33:49.740Z,99403.38
2024-04-11T13:36:42.599Z,99394.75
2024-04-11T13:39:45.209Z,99396.13
2024-04-11T13:42:36.185Z,99387.44
2024-04-11T13:45:27.401Z,99394.50
2024-04-11T13:48:18.534Z,99385.44
2024-04-11T13:51:16.794Z,99389.31
2024-04-11T13:54:09.078Z,99380.84
2024-04-11T13:57:11.580Z,99382.91
2024-04-11T14:00:10.476Z,99371.81
2024-04-11T14:03:01.541Z,99375.03
2024-04-11T14:06:01.832Z,99377.19
2024-04-11T14:08:54.775Z,99369.00
2024-04-11T14:11:49.556Z,99366.00
2024-04-11T14:14:40.559Z,99374.91
2024-04-11T14:17:34.966Z,99374.28
2024-04-11T14:20:33.244Z,99365.53
2024-04-11T14:23:44.304Z,99364.81
2024-04-11T14:26:53.433Z,99365.09
2024-04-11T14:29:44.426Z,99359.03
2024-04-11T14:32:53.977Z,99356.41
2024-04-11T14:36:04.175Z,99349.56
2024-04-11T14:39:07.070Z,99353.06
2024-04-11T14:41:59.640Z,99347.66
2024-04-11T14:44:54.956Z,99336.03
2024-04-11T14:47:47.349Z,99347.75
2024-04-11T14:50:38.290Z,99332.34
2024-04-11T14:53:35.066Z,99340.94
2024-04-11T14:56:41.798Z,99330.91
2024-04-11T14:59:34.711Z,99329.56
2024-04-11T15:02:30.691Z,99326.78
2024-04-11T15:05:21.674Z,99334.59
2024-04-11T15:08:12.525Z,99325.81
2024-04-11T15:11:12.739Z,99323.28
2024-04-11T15:14:05.784Z,99328.16
2024-04-11T15:17:16.588Z,99330.91
2024-04-11T15:20:11.695Z,99333.03
2024-04-11T15:23:09.802Z,99327.84
2024-04-11T15:26:02.000Z,99338.94
2024-04-11T15:28:54.122Z,99332.03
2024-04-11T15:32:06.927Z,99332.69
2024-04-11T15:35:08.466Z,99335.69
2024-04-11T15:38:14.327Z,99330.81
2024-04-11T15:41:09.154Z,99327.28
2024-04-11T15:44:01.614Z,99328.31
2024-04-11T15:46:55.618Z,99324.31
2024-04-11T15:49:47.866Z,99322.06
2024-04-11T15:52:38.755Z,99330.38
2024-04-11T15:55:49.104Z,99335.44
2024-04-11T15:58:40.075Z,99331.50
2024-04-11T16:01:30.912Z,99326.56
2024-04-11T16:04:24.924Z,99328.38
2024-04-11T16:07:24.617Z,99325.28
2024-04-11T16:10:15.416Z,99322.09
2024-04-11T16:13:15.968Z,99316.22
2024-04-11T16:16:07.377Z,99325.63
2024-04-11T16:18:58.819Z,99326.44
2024-04-11T16:21:52.473Z,99327.94
2024-04-11T16:24:53.700Z,99324.47
2024-04-11T16:27:44.657Z,99328.06
2024-04-11T16:30:55.966Z,99329.41
2024-04-11T16:33:50.895Z,99326.91
2024-04-11T16:36:54.676Z,99333.91
2024-04-11T16:39:51.239Z,99324.38
2024-04-11T16:42:42.212Z,99327.47
2024-04-11T16:45:43.243Z,99323.97
2024-04-11T16:48:44.057Z,99327.28
2024-04-11T16:51:35.065Z,99321.34
2024-04-11T16:54:41.729Z,99323.50
2024-04-11T16:57:39.732Z,99327.25
2024-04-11T17:00:41.590Z,99322.09
2024-04-11T17:03:35.442Z,99326.81
2024-04-11T17:06:28.225Z,99323.44
2024-04-11T17:09:28.039Z,99321.34
2024-04-11T17:12:19.107Z,99322.03
2024-04-11T17:15:15.113Z,99333.38
2024-04-11T17:18:06.071Z,99331.41
2024-04-11T17:21:11.841Z,99329.44
2024-04-11T17:24:06.494Z,99331.69
2024-04-11T17:26:59.341Z,99337.16
2024-04-11T17:30:14.736Z,99340.16
2024-04-11T17:33:20.834Z,99348.34
2024-04-11T17:36:24.044Z,99349.69
2024-04-11T17:39:14.960Z,99350.03
2024-04-11T17:42:15.256Z,99343.94
2024-04-11T17:45:06.732Z,99353.66
2024-04-11T17:48:01.841Z,99354.34
2024-04-11T17:50:52.950Z,99349.00
2024-04-11T17:53:50.696Z,99363.88
2024-04-11T17:56:45.179Z,99365.47
2024-04-11T17:59:38.586Z,99364.47
2024-04-11T18:02:35.290Z,99375.03
2024-04-11T18:05:26.177Z,99377.78
2024-04-11T18:08:21.113Z,99376.75
2024-04-11T18:11:14.812Z,99388.00
2024-04-11T18:14:08.086Z,99392.53
2024-04-11T18:17:11.558Z,99387.88
2024-04-11T18:20:11.996Z,99394.38
2024-04-11T18:23:05.164Z,99400.88
2024-04-11T18:25:58.504Z,99410.59
2024-04-11T18:28:51.503Z,99410.59
2024-04-11T18:31:43.122Z,99407.97
2024-04-11T18:34:36.384Z,99407.56
2024-04-11T18:37:27.295Z,99407.91
2024-04-11T18:40:41.146Z,99405.72
2024-04-11T18:43:37.964Z,99408.88
2024-04-11T18:46:47.299Z,99409.88
2024-04-11T18:49:40.511Z,99416.56
2024-04-11T18:52:32.350Z,99413.53
2024-04-11T18:55:29.603Z,99413.56
2024-04-11T18:58:20.688Z,99416.66
2024-04-11T19:01:18.949Z,99423.66
2024-04-11T19:04:30.429Z,99425.78
2024-04-11T19:07:25.381Z,99428.41
2024-04-11T19:10:16.650Z,99428.91
2024-04-11T19:13:11.847Z,99441.19
2024-04-11T19:16:06.970Z,99436.16
2024-04-11T19:18:58.257Z,99440.19
2024-04-11T19:21:49.767Z,99435.50
2024-04-11T19:24:44.931Z,99437.94
2024-04-11T19:27:36.233Z,99440.34
2024-04-11T19:30:37.680Z,99449.69
2024-04-11T19:33:31.615Z,99447.09
2024-04-11T19:36:25.922Z,99452.94
2024-04-11T19:39:20.792Z,99444.81
2024-04-11T19:42:19.371Z,99448.06
2024-04-11T19:45:14.035Z,99453.22
2024-04-11T19:48:08.718Z,99449.63
2024-04-11T19:51:00.819Z,99455.44
2024-04-11T19:53:55.783Z,99460.91
2024-04-11T19:56:51.257Z,99456.69
2024-04-11T19:59:42.716Z,99446.16
2024-04-11T20:02:36.844Z,99450.78
2024-04-11T20:05:27.781Z,99462.97
2024-04-11T20:08:20.478Z,99459.25
2024-04-11T20:11:24.106Z,99465.84
2024-04-11T20:14:28.180Z,99469.03
2024-04-11T20:17:32.368Z,99464.16
2024-04-11T20:20:31.864Z,99463.66
2024-04-11T20:23:22.975Z,99470.06
2024-04-11T20:26:18.561Z,99467.00
2024-04-11T20:29:17.489Z,99466.28
2024-04-11T20:32:08.527Z,99466.38
2024-04-11T20:35:23.747Z,99471.91
2024-04-11T20:38:19.177Z,99470.38
2024-04-11T20:41:24.709Z,99477.59
2024-04-11T20:44:15.529Z,99477.25
2024-04-11T20:47:09.227Z,99468.03
2024-04-11T20:50:18.131Z,99474.28
2024-04-11T20:53:27.653Z,99474.75
2024-04-11T20:56:37.765Z,99480.50
2024-04-11T20:59:47.400Z,99477.69
2024-04-11T21:02:57.212Z,99475.28
2024-04-11T21:06:06.937Z,99478.25
2024-04-11T21:09:16.539Z,99479.94
2024-04-11T21:12:26.192Z,99480.69
2024-04-11T21:15:35.734Z,99483.84
2024-04-11T21:18:45.371Z,99484.31
2024-04-11T21:21:54.785Z,99486.34
2024-04-11T21:25:04.456Z,99489.06
2024-04-11T21:28:13.797Z,99494.63
2024-04-11T21:31:23.346Z,99495.34
2024-04-11T21:34:17.472Z,99492.56
2024-04-11T21:37:13.725Z,99498.00
2024-04-11T21:40:14.926Z,99490.41
2024-04-11T21:43:07.214Z,99492.47
2024-04-11T21:45:59.180Z,99498.06
2024-04-11T21:48:55.353Z,99506.06
2024-04-11T21:51:48.968Z,99508.25
2024-04-11T21:54:50.504Z,99502.69
2024-04-11T21:57:41.699Z,99508.94
2024-04-11T22:00:51.168Z,99508.25
2024-04-11T22:03:42.074Z,99502.91
2024-04-11T22:06:37.571Z,99503.59
2024-04-11T22:09:41.405Z,99504.00
2024-04-11T22:12:32.560Z,99497.47
2024-04-11T22:15:37.518Z,99503.84
2024-04-11T22:18:32.006Z,99502.50
2024-04-11T22:21:25.807Z,99493.44
2024-04-11T22:24:18.166Z,99503.75
2024-04-11T22:27:10.767Z,99510.09
2024-04-11T22:30:07.805Z,99516.38
2024-04-11T22:33:03.316Z,99511.22
2024-04-11T22:35:58.167Z,99508.91
2024-04-11T22:38:52.038Z,99521.22
2024-04-11T22:41:46.715Z,99518.94
2024-04-11T22:44:48.723Z,99521.13
2024-04-11T22:47:40.698Z,99518.16
2024-04-11T22:50:41.059Z,99522.06
2024-04-11T22:53:33.344Z,99526.81
2024-04-11T22:56:38.321Z,99529.00
2024-04-11T22:59:38.156Z,99529.66
2024-04-11T23:02:31.610Z,99532.66
2024-04-11T23:05:22.825Z,99527.22
2024-04-11T23:08:13.743Z,99526.69
2024-04-11T23:11:13.346Z,99522.50
2024-04-11T23:14:06.663Z,99525.06
2024-04-11T23:17:11.469Z,99527.50
2024-04-11T23:20:04.614Z,99518.31
2024-04-11T23:23:01.057Z,99523.72
2024-04-11T23:25:55.482Z,99512.38
2024-04-11T23:28:48.160Z,99512.63
2024-04-11T23:31:41.277Z,99508.03
2024-04-11T23:34:33.662Z,99513.44
2024-04-11T23:37:24.469Z,99512.75
2024-04-11T23:40:25.136Z,99511.81
2024-04-11T23:43:27.113Z,99508.31
2024-04-11T23:46:32.250Z,99491.25
2024-04-11T23:49:23.184Z,99493.16
2024-04-11T23:52:14.030Z,99500.19
2024-04-11T23:55:10.228Z,99501.94
2024-04-11T23:58:16.647Z,99500.59
